Overview Statistics Trail Chart Weather Telemetry Raw packets
 

This is the latest recevied weather packets stored in our database for station/object N7BTW-13. If no packets are shown the sender has not sent any weather packets the latest 10 day(s).

<< 9 10 11 12 13 14 15 >>
Time Temp. Humidity Pressure Rain* Wind** Luminosity Snow
1788479408 17.22° C 75% - 0 mm - - -
1788478809 16.11° C 76% - 0 mm - - -
1788478207 16.11° C 76% - 0 mm - - -
1788477607 16.11° C 80% - 0 mm - - -
1788477007 15.56° C 83% - 0 mm - - -
1788476407 15° C 84% - 0 mm - - -
1788475808 15° C 83% - 0 mm - - -
1788475208 15.56° C 82% - 0 mm - - -
1788474607 16.67° C 78% - 0 mm - - -
1788474008 15.56° C 82% - 0 mm - - -
1788473426 15.56° C 85% - 0 mm - - -
1788472808 15.56° C 88% - 0 mm - - -
1788472207 15.56° C 89% - 0.25 mm - - -
1788471607 15° C 90% - 0.51 mm - - -
1788471010 15.56° C 90% - 0.76 mm - - -
1788470406 15° C 93% - 0.76 mm - - -
1788469807 14.44° C 93% - 0.76 mm - - -
1788469207 14.44° C 90% - 0.76 mm - - -
1788468608 14.44° C 91% - 0.51 mm - - -
1788468008 15° C 88% - 0.25 mm - - -
1788467410 15.56° C 85% - 0 mm - - -
1788466806 15.56° C 86% - 0 mm - - -
1788466206 15.56° C 86% - 0 mm - - -
1788465619 16.11° C 80% - 0 mm - - -
1788465007 16.11° C 78% - 0 mm - - -

* Rain latest hour (hover to see other rain measurements)
** Current wind speed in m/s (hover to see current wind gust speed)